Malacacheta, Brazil
Current Conditions -  °F | °C
As of 8:00 PM on Thursday 18 Dec 2014 (Local Time) from SBIP Reporting Station
Clear Clear  
Wind Chill: 81°   Ceiling: Unl
Heat Index: 82°   Visibility: 6mi
Dew Point: 63°   Wind: 0mph
Humidity: 54%   Direction: NA
Pressure: 29.8"   Gusts: NA
Location:  17.84°S, 42.08°W
Report Text: SBIP 182200Z 00000KT CAVOK 27/17 Q1009
Loading
Personal Weather Stations






























Interactive Weather Map New forecast layout! Learn more

10-Day Weather Forecast

Advertisements
Track Severe Weather on mobile